Time;durP1;ratioP1;P1;durP2;ratioP2;P2;SDS_P1;SDS_P2;PMS_P1;PMS_P2;Temp;Humidity;BMP_temperature;BMP_pressure;BME280_temperature;BME280_humidity;BME280_pressure;Samples;Min_cycle;Max_cycle;Signal;HPM_P1;HPM_P2
2021/10/01 00:01:47;;;;;;;5.60;1.20;;;;;;;;;;4290775;33;20223;-78
2021/10/01 00:04:15;;;;;;;5.07;1.30;;;;;;;;;;4285556;33;20291;-77
2021/10/01 00:06:41;;;;;;;2.85;1.05;;;;;;;;;;4290358;33;20681;-78
2021/10/01 00:09:06;;;;;;;4.93;1.37;;;;;;;;;;4290266;33;20172;-78
2021/10/01 00:11:32;;;;;;;3.72;1.40;;;;;;;;;;4290149;33;20214;-78
2021/10/01 00:14:18;;;;;;;4.00;1.30;;;;;;;;;;4290405;33;20169;-79
2021/10/01 00:16:42;;;;;;;9.27;1.20;;;;;;;;;;4303496;33;20200;-78
2021/10/01 00:19:08;;;;;;;3.30;1.10;;;;;;;;;;4289780;33;20227;-78
2021/10/01 00:21:36;;;;;;;7.20;1.40;;;;;;;;;;4290307;33;20164;-79
2021/10/01 00:24:11;;;;;;;5.03;1.23;;;;;;;;;;4290162;33;20191;-78
2021/10/01 00:26:36;;;;;;;2.97;1.30;;;;;;;;;;4289849;33;20163;-78
2021/10/01 00:29:02;;;;;;;7.32;1.50;;;;;;;;;;4290089;33;20603;-78
2021/10/01 00:31:27;;;;;;;3.80;1.40;;;;;;;;;;4289858;33;20614;-78
2021/10/01 00:33:53;;;;;;;3.85;1.27;;;;;;;;;;4289903;33;20164;-78
2021/10/01 00:36:18;;;;;;;4.50;1.85;;;;;;;;;;4289892;33;20168;-78
2021/10/01 00:38:43;;;;;;;4.32;1.27;;;;;;;;;;4290961;33;20180;-78
2021/10/01 00:41:17;;;;;;;7.55;1.30;;;;;;;;;;4303191;33;20133;-78
2021/10/01 00:43:43;;;;;;;4.43;1.48;;;;;;;;;;4289970;33;20557;-78
2021/10/01 00:46:11;;;;;;;8.52;1.50;;;;;;;;;;4289976;33;20191;-78
2021/10/01 00:48:36;;;;;;;5.43;1.23;;;;;;;;;;4289437;33;20212;-78
2021/10/01 00:51:06;;;;;;;6.87;1.85;;;;;;;;;;4290010;33;20204;-78
2021/10/01 00:53:32;;;;;;;6.82;1.50;;;;;;;;;;4289844;33;20498;-78
2021/10/01 00:55:57;;;;;;;8.50;1.60;;;;;;;;;;4289600;33;20194;-78
2021/10/01 00:58:22;;;;;;;5.37;1.40;;;;;;;;;;4289841;33;20164;-78
2021/10/01 01:03:35;;;;;;;4.78;1.40;;;;;;;;;;4302918;33;20552;-78
2021/10/01 01:06:07;;;;;;;4.62;1.45;;;;;;;;;;4287838;33;20179;-79
2021/10/01 01:08:34;;;;;;;4.50;1.15;;;;;;;;;;4289676;33;20192;-78
2021/10/01 01:11:03;;;;;;;6.90;1.52;;;;;;;;;;4289820;33;20220;-78
2021/10/01 01:13:48;;;;;;;3.97;1.30;;;;;;;;;;4289708;33;20215;-79
2021/10/01 01:16:16;;;;;;;3.03;1.05;;;;;;;;;;4289807;33;20219;-78
2021/10/01 01:18:44;;;;;;;5.57;1.50;;;;;;;;;;4300874;33;20575;-78
2021/10/01 01:21:14;;;;;;;3.30;1.15;;;;;;;;;;4301742;33;20183;-78
2021/10/01 01:24:22;;;;;;;5.20;1.37;;;;;;;;;;4303018;33;20163;-79
2021/10/01 01:27:06;;;;;;;4.78;1.45;;;;;;;;;;4289976;33;20176;-78
2021/10/01 01:29:34;;;;;;;2.80;1.17;;;;;;;;;;4289371;33;20520;-78
2021/10/01 01:32:16;;;;;;;3.83;1.30;;;;;;;;;;4289070;33;20176;-78
2021/10/01 01:34:47;;;;;;;6.00;1.30;;;;;;;;;;4289501;33;20211;-78
2021/10/01 01:37:22;;;;;;;1.67;1.00;;;;;;;;;;4288952;33;20203;-78
2021/10/01 01:39:48;;;;;;;4.72;1.48;;;;;;;;;;4288964;33;20164;-78
2021/10/01 01:42:23;;;;;;;4.12;1.20;;;;;;;;;;4289361;33;20153;-78
2021/10/01 01:44:48;;;;;;;4.55;1.17;;;;;;;;;;4302622;33;20144;-78
2021/10/01 01:47:21;;;;;;;5.20;1.40;;;;;;;;;;4288863;33;20239;-78
2021/10/01 01:49:49;;;;;;;4.97;1.15;;;;;;;;;;4302732;33;20144;-78
2021/10/01 01:52:15;;;;;;;2.50;1.00;;;;;;;;;;4289017;33;20168;-78
2021/10/01 01:54:50;;;;;;;6.43;1.27;;;;;;;;;;4289080;33;20173;-78
2021/10/01 01:57:18;;;;;;;5.53;1.55;;;;;;;;;;4289258;33;20167;-78
2021/10/01 01:59:44;;;;;;;4.30;1.45;;;;;;;;;;4301970;33;20140;-78
2021/10/01 02:02:09;;;;;;;2.90;1.10;;;;;;;;;;4301774;33;20208;-78
2021/10/01 02:04:36;;;;;;;7.45;1.20;;;;;;;;;;4289044;33;20172;-79
2021/10/01 02:07:02;;;;;;;5.37;1.55;;;;;;;;;;4288488;33;20184;-78
2021/10/01 02:09:30;;;;;;;4.37;1.83;;;;;;;;;;4287825;33;20229;-78
2021/10/01 02:11:56;;;;;;;4.30;1.92;;;;;;;;;;4302171;33;20184;-78
2021/10/01 02:14:25;;;;;;;5.40;1.65;;;;;;;;;;4289175;33;20172;-78
2021/10/01 02:16:51;;;;;;;4.30;1.80;;;;;;;;;;4287226;33;20490;-78
2021/10/01 02:19:17;;;;;;;6.50;1.90;;;;;;;;;;4288254;33;20231;-79
2021/10/01 02:22:03;;;;;;;5.47;1.50;;;;;;;;;;4301691;33;20176;-79
2021/10/01 02:24:29;;;;;;;5.45;1.75;;;;;;;;;;4302065;33;20231;-79
2021/10/01 02:26:59;;;;;;;6.82;1.73;;;;;;;;;;4290520;33;20225;-79
2021/10/01 02:29:29;;;;;;;6.10;1.87;;;;;;;;;;4303865;33;20153;-79
2021/10/01 02:32:15;;;;;;;4.47;1.92;;;;;;;;;;4302532;33;20160;-79
2021/10/01 02:34:42;;;;;;;6.53;2.15;;;;;;;;;;4302809;33;20164;-79
2021/10/01 02:37:07;;;;;;;3.75;1.65;;;;;;;;;;4302766;33;20167;-79
2021/10/01 02:39:38;;;;;;;7.07;1.77;;;;;;;;;;4302523;33;20183;-79
2021/10/01 02:42:04;;;;;;;6.25;1.80;;;;;;;;;;4302741;33;20173;-79
2021/10/01 02:44:30;;;;;;;6.50;1.77;;;;;;;;;;4291070;33;20164;-79
2021/10/01 02:46:58;;;;;;;4.03;1.70;;;;;;;;;;4303319;33;20190;-79
2021/10/01 02:49:23;;;;;;;5.62;1.70;;;;;;;;;;4302737;33;20160;-79
2021/10/01 02:51:53;;;;;;;9.23;2.00;;;;;;;;;;4302664;33;20186;-79
2021/10/01 02:54:23;;;;;;;6.47;1.95;;;;;;;;;;4301942;33;20172;-80
2021/10/01 02:56:55;;;;;;;3.92;1.70;;;;;;;;;;4303195;33;20198;-80
2021/10/01 02:59:22;;;;;;;4.35;1.87;;;;;;;;;;4303331;33;20160;-78
2021/10/01 03:01:49;;;;;;;3.85;1.70;;;;;;;;;;4316020;33;20199;-78
2021/10/01 03:04:14;;;;;;;4.40;1.80;;;;;;;;;;4302970;33;20549;-78
2021/10/01 03:06:51;;;;;;;5.10;1.73;;;;;;;;;;4302474;33;20164;-78
2021/10/01 03:09:16;;;;;;;4.50;1.75;;;;;;;;;;4296114;33;20176;-78
2021/10/01 03:11:47;;;;;;;5.53;1.80;;;;;;;;;;4287581;33;20585;-78
2021/10/01 03:14:33;;;;;;;5.53;1.80;;;;;;;;;;4288667;33;20528;-78
2021/10/01 03:17:05;;;;;;;5.05;1.50;;;;;;;;;;4283053;33;20603;-78
2021/10/01 03:20:03;;;;;;;3.95;1.65;;;;;;;;;;4286086;33;20172;-79
2021/10/01 03:22:32;;;;;;;3.00;1.23;;;;;;;;;;4283338;33;20255;-78
2021/10/01 03:25:36;;;;;;;5.53;1.50;;;;;;;;;;4286914;33;20239;-78
2021/10/01 03:28:32;;;;;;;5.20;1.80;;;;;;;;;;4286311;33;20168;-78
2021/10/01 03:30:56;;;;;;;7.70;1.92;;;;;;;;;;4298060;33;20164;-78
2021/10/01 03:33:24;;;;;;;4.80;1.62;;;;;;;;;;4289502;33;20520;-78
2021/10/01 03:35:50;;;;;;;8.30;1.90;;;;;;;;;;4290442;33;20160;-79
2021/10/01 03:38:15;;;;;;;8.85;1.62;;;;;;;;;;4291488;33;20259;-79
2021/10/01 03:40:46;;;;;;;5.10;1.48;;;;;;;;;;4291135;33;20156;-79
2021/10/01 03:43:18;;;;;;;5.45;1.40;;;;;;;;;;4290704;33;20149;-78
2021/10/01 03:45:44;;;;;;;4.22;1.65;;;;;;;;;;4304701;33;20160;-78
2021/10/01 03:48:10;;;;;;;3.42;1.48;;;;;;;;;;4291008;33;20179;-79
2021/10/01 03:50:35;;;;;;;5.93;1.70;;;;;;;;;;4291788;33;20476;-79
2021/10/01 03:53:01;;;;;;;6.32;1.40;;;;;;;;;;4290559;33;20241;-79
2021/10/01 03:55:27;;;;;;;5.62;1.60;;;;;;;;;;4290883;33;20153;-79
2021/10/01 03:57:53;;;;;;;6.75;1.70;;;;;;;;;;4290413;33;20250;-78
2021/10/01 04:00:18;;;;;;;2.95;1.67;;;;;;;;;;4290614;33;20172;-78
2021/10/01 04:02:44;;;;;;;3.22;1.58;;;;;;;;;;4290340;33;20182;-78
2021/10/01 04:05:10;;;;;;;3.42;1.42;;;;;;;;;;4290353;33;20157;-79
2021/10/01 04:07:37;;;;;;;5.37;1.62;;;;;;;;;;4289466;33;20155;-78
2021/10/01 04:10:03;;;;;;;8.07;1.67;;;;;;;;;;4285660;33;20247;-77
2021/10/01 04:12:29;;;;;;;6.50;1.40;;;;;;;;;;4285380;33;20163;-78
2021/10/01 04:14:54;;;;;;;5.97;1.40;;;;;;;;;;4280648;33;20164;-77
2021/10/01 04:17:29;;;;;;;;;;;;;;;;;;;;;
2021/10/01 04:19:55;;;;;;;7.90;1.60;;;;;;;;;;4301047;33;20191;-78
2021/10/01 04:22:21;;;;;;;7.57;2.00;;;;;;;;;;4290526;33;20160;-77
2021/10/01 04:24:46;;;;;;;5.80;1.83;;;;;;;;;;4302105;33;20525;-78
2021/10/01 04:27:14;;;;;;;4.05;1.80;;;;;;;;;;4289825;33;20683;-78
2021/10/01 04:29:41;;;;;;;4.20;1.65;;;;;;;;;;4303445;33;20149;-78
2021/10/01 04:32:07;;;;;;;4.32;1.75;;;;;;;;;;4289317;33;20526;-77
2021/10/01 04:35:00;;;;;;;4.97;1.87;;;;;;;;;;4289974;33;20199;-78
2021/10/01 04:37:28;;;;;;;3.65;1.70;;;;;;;;;;4289820;33;20602;-77
2021/10/01 04:40:00;;;;;;;5.32;1.87;;;;;;;;;;4290114;33;20164;-78
2021/10/01 04:42:25;;;;;;;4.53;2.00;;;;;;;;;;4290313;33;20152;-78
2021/10/01 04:44:51;;;;;;;5.93;2.17;;;;;;;;;;4289509;33;20164;-78
2021/10/01 04:47:21;;;;;;;3.60;1.60;;;;;;;;;;4301676;33;20574;-79
2021/10/01 04:49:49;;;;;;;8.70;2.10;;;;;;;;;;4302861;33;20148;-78
2021/10/01 04:52:15;;;;;;;6.95;2.00;;;;;;;;;;4289509;33;20168;-79
2021/10/01 04:54:49;;;;;;;3.60;1.90;;;;;;;;;;4289943;33;20683;-79
2021/10/01 04:57:43;;;;;;;8.82;1.90;;;;;;;;;;4302889;33;20589;-77
2021/10/01 05:00:09;;;;;;;11.93;2.35;;;;;;;;;;4288643;33;20734;-77
2021/10/01 05:02:34;;;;;;;7.70;2.05;;;;;;;;;;4289282;33;20199;-79
2021/10/01 05:05:00;;;;;;;6.97;1.83;;;;;;;;;;4290219;33;20499;-78
2021/10/01 05:07:25;;;;;;;4.45;1.80;;;;;;;;;;4289631;33;20176;-77
2021/10/01 05:09:53;;;;;;;6.87;1.98;;;;;;;;;;4289369;33;20168;-77
2021/10/01 05:12:32;;;;;;;8.30;1.73;;;;;;;;;;4288382;33;20169;-78
2021/10/01 05:14:57;;;;;;;6.03;1.90;;;;;;;;;;4285833;33;20164;-75
2021/10/01 05:17:26;;;;;;;5.97;1.65;;;;;;;;;;4302438;33;20600;-79
2021/10/01 05:19:51;;;;;;;3.55;1.48;;;;;;;;;;4289166;33;20187;-78
2021/10/01 05:22:17;;;;;;;3.95;1.50;;;;;;;;;;4289203;33;20157;-79
2021/10/01 05:25:01;;;;;;;7.03;2.08;;;;;;;;;;4289301;33;20188;-78
2021/10/01 05:27:27;;;;;;;9.55;1.70;;;;;;;;;;4289624;33;20164;-77
2021/10/01 05:29:53;;;;;;;5.78;2.12;;;;;;;;;;4289048;33;20188;-78
2021/10/01 05:32:18;;;;;;;6.55;1.67;;;;;;;;;;4289605;33;20152;-77
2021/10/01 05:34:43;;;;;;;3.08;1.35;;;;;;;;;;4289077;33;20156;-78
2021/10/01 05:37:09;;;;;;;4.30;1.60;;;;;;;;;;4302497;33;20539;-78
2021/10/01 05:39:34;;;;;;;2.70;1.33;;;;;;;;;;4301102;33;20302;-77
2021/10/01 05:41:59;;;;;;;6.35;1.45;;;;;;;;;;4302025;33;20156;-77
2021/10/01 05:44:25;;;;;;;5.22;1.70;;;;;;;;;;4289057;33;20203;-78
2021/10/01 05:46:50;;;;;;;6.37;1.65;;;;;;;;;;4288645;33;20164;-77
2021/10/01 05:49:21;;;;;;;6.03;1.50;;;;;;;;;;4288430;33;20587;-77
2021/10/01 05:51:52;;;;;;;6.03;1.73;;;;;;;;;;4287322;33;20160;-77
2021/10/01 05:54:24;;;;;;;5.68;1.40;;;;;;;;;;4300047;33;20137;-77
2021/10/01 05:57:11;;;;;;;8.60;2.00;;;;;;;;;;4288223;33;20214;-78
2021/10/01 05:59:43;;;;;;;5.03;1.40;;;;;;;;;;4298374;33;20149;-77
2021/10/01 06:02:15;;;;;;;4.32;1.25;;;;;;;;;;4288878;33;20595;-78
2021/10/01 06:04:41;;;;;;;7.75;2.53;;;;;;;;;;4288660;33;20551;-77
2021/10/01 06:07:06;;;;;;;5.85;1.40;;;;;;;;;;4301629;33;20170;-77
2021/10/01 06:09:32;;;;;;;5.47;1.87;;;;;;;;;;4301714;33;20156;-77
2021/10/01 06:11:57;;;;;;;6.25;1.50;;;;;;;;;;4284253;33;20153;-77
2021/10/01 06:14:23;;;;;;;7.10;1.60;;;;;;;;;;4285344;33;20287;-76
2021/10/01 06:16:49;;;;;;;8.93;1.70;;;;;;;;;;4300636;33;20163;-77
2021/10/01 06:19:14;;;;;;;6.37;1.62;;;;;;;;;;4301712;33;20475;-75
2021/10/01 06:21:40;;;;;;;6.15;1.75;;;;;;;;;;4283846;33;20644;-77
2021/10/01 06:24:05;;;;;;;6.80;2.20;;;;;;;;;;4301826;33;20568;-77
2021/10/01 06:26:30;;;;;;;4.85;1.70;;;;;;;;;;4288294;33;20160;-77
2021/10/01 06:28:59;;;;;;;5.20;1.43;;;;;;;;;;4301220;33;20133;-77
2021/10/01 06:31:24;;;;;;;9.13;2.00;;;;;;;;;;4301684;33;20329;-77
2021/10/01 06:33:49;;;;;;;4.50;1.42;;;;;;;;;;4284564;33;20165;-77
2021/10/01 06:36:19;;;;;;;3.42;1.40;;;;;;;;;;4288785;33;20225;-77
2021/10/01 06:38:58;;;;;;;5.40;1.52;;;;;;;;;;4300608;33;20171;-77
2021/10/01 06:41:23;;;;;;;5.68;1.50;;;;;;;;;;4301627;33;20203;-75
2021/10/01 06:43:56;;;;;;;7.25;1.35;;;;;;;;;;4301190;33;20129;-77
2021/10/01 06:46:47;;;;;;;3.95;2.03;;;;;;;;;;4288820;33;20242;-78
2021/10/01 08:19:13;;;;;;;4.20;1.37;;;;;;;;;;4298108;33;21372;-77
2021/10/01 08:21:48;;;;;;;;;;;;;;;;;;;;;
2021/10/01 08:24:19;;;;;;;5.43;1.45;;;;;;;;;;4302742;33;20160;-79
2021/10/01 08:26:57;;;;;;;3.75;1.70;;;;;;;;;;4289987;33;20160;-78
2021/10/01 08:29:32;;;;;;;9.07;1.67;;;;;;;;;;4290029;33;20202;-78
2021/10/01 08:32:07;;;;;;;2.80;1.33;;;;;;;;;;4290143;33;20164;-77
2021/10/01 08:34:34;;;;;;;4.10;1.55;;;;;;;;;;4289812;33;20195;-77
2021/10/01 08:40:04;;;;;;;3.33;1.40;;;;;;;;;;4301318;33;20218;-78
2021/10/01 08:42:31;;;;;;;3.50;1.20;;;;;;;;;;4288996;33;20191;-77
2021/10/01 08:45:12;;;;;;;5.22;1.50;;;;;;;;;;4290290;33;20203;-77
2021/10/01 08:47:39;;;;;;;9.10;2.30;;;;;;;;;;4289856;33;20164;-77
2021/10/01 08:50:07;;;;;;;4.00;1.75;;;;;;;;;;4289640;33;20192;-77
2021/10/01 08:52:35;;;;;;;4.85;1.45;;;;;;;;;;4289834;33;20183;-77
2021/10/01 08:55:04;;;;;;;6.75;1.62;;;;;;;;;;4289717;33;20180;-76
2021/10/01 08:57:31;;;;;;;7.60;1.67;;;;;;;;;;4290010;33;20165;-78
2021/10/01 09:00:00;;;;;;;5.28;1.83;;;;;;;;;;4302426;33;20141;-77
2021/10/01 09:02:38;;;;;;;;;;;;;;;;;;;;;
2021/10/01 09:05:07;;;;;;;5.22;1.70;;;;;;;;;;4303737;33;20159;-78
2021/10/01 09:07:32;;;;;;;5.70;1.98;;;;;;;;;;4289394;33;20190;-78
2021/10/01 09:09:58;;;;;;;7.68;1.70;;;;;;;;;;4289585;33;20157;-77
2021/10/01 09:12:23;;;;;;;2.08;1.30;;;;;;;;;;4289166;33;20156;-77
2021/10/01 09:14:53;;;;;;;6.32;1.92;;;;;;;;;;4289701;33;20160;-77
2021/10/01 09:17:25;;;;;;;7.18;1.70;;;;;;;;;;4289599;33;20152;-77
2021/10/01 09:19:51;;;;;;;8.07;1.67;;;;;;;;;;4289595;33;20184;-79
2021/10/01 09:22:36;;;;;;;8.27;1.80;;;;;;;;;;4287762;33;20190;-77
2021/10/01 09:25:17;;;;;;;7.75;1.70;;;;;;;;;;4288681;33;20615;-77
2021/10/01 09:27:43;;;;;;;6.20;1.70;;;;;;;;;;4289031;33;20152;-77
2021/10/01 09:30:09;;;;;;;7.45;1.90;;;;;;;;;;4288335;33;20156;-78
2021/10/01 09:32:35;;;;;;;7.15;1.75;;;;;;;;;;4302986;33;20167;-77
2021/10/01 09:35:09;;;;;;;5.22;1.60;;;;;;;;;;4289414;33;20203;-77
2021/10/01 09:37:34;;;;;;;6.87;2.00;;;;;;;;;;4288749;33;20164;-77
2021/10/01 09:40:02;;;;;;;6.35;1.62;;;;;;;;;;4287897;33;20517;-77
2021/10/01 09:42:31;;;;;;;6.80;1.75;;;;;;;;;;4288651;33;20231;-77
2021/10/01 09:45:01;;;;;;;4.37;1.60;;;;;;;;;;4288714;33;20215;-77
2021/10/01 09:47:28;;;;;;;5.12;1.70;;;;;;;;;;4289467;33;20190;-76
2021/10/01 09:50:38;;;;;;;6.62;1.80;;;;;;;;;;4448970;32;20205;-77
2021/10/01 09:53:11;;;;;;;4.85;1.85;;;;;;;;;;4434119;32;20134;-78
2021/10/01 09:55:41;;;;;;;8.18;1.85;;;;;;;;;;4433638;32;20125;-77
2021/10/01 09:58:13;;;;;;;3.75;1.67;;;;;;;;;;4434287;32;20130;-77
2021/10/01 10:00:46;;;;;;;11.05;1.80;;;;;;;;;;4417822;32;20150;-77
2021/10/01 10:03:28;;;;;;;3.50;1.55;;;;;;;;;;4404149;32;20258;-77
2021/10/01 10:06:00;;;;;;;8.60;1.87;;;;;;;;;;4418365;32;20135;-78
2021/10/01 10:08:30;;;;;;;4.18;1.65;;;;;;;;;;4418269;32;20142;-77
2021/10/01 10:10:56;;;;;;;7.93;1.73;;;;;;;;;;4417494;32;20199;-77
2021/10/01 10:13:43;;;;;;;6.65;1.83;;;;;;;;;;4418152;32;20203;-78
2021/10/01 10:16:12;;;;;;;7.03;1.73;;;;;;;;;;4417998;32;20164;-78
2021/10/01 10:18:38;;;;;;;4.68;1.83;;;;;;;;;;4418182;32;20153;-76
2021/10/01 10:21:03;;;;;;;5.53;2.53;;;;;;;;;;4417691;32;20134;-78
2021/10/01 10:23:28;;;;;;;9.80;2.65;;;;;;;;;;4420121;32;20543;-78
2021/10/01 10:25:54;;;;;;;7.03;2.10;;;;;;;;;;4433514;32;20573;-76
2021/10/01 10:28:19;;;;;;;6.28;2.20;;;;;;;;;;4420370;32;20185;-77
2021/10/01 10:30:50;;;;;;;8.48;2.10;;;;;;;;;;4418176;32;20146;-77
2021/10/01 10:33:39;;;;;;;9.90;2.08;;;;;;;;;;4417731;32;20130;-78
2021/10/01 10:36:27;;;;;;;4.87;1.98;;;;;;;;;;4406627;32;20182;-78
2021/10/01 10:38:56;;;;;;;6.60;2.40;;;;;;;;;;4407771;32;20185;-79
2021/10/01 10:41:22;;;;;;;4.05;2.65;;;;;;;;;;4433278;32;20169;-78
2021/10/01 10:43:48;;;;;;;7.03;2.85;;;;;;;;;;4432845;32;20133;-78
2021/10/01 10:46:32;;;;;;;10.38;2.53;;;;;;;;;;4433523;32;20176;-78
2021/10/01 10:49:16;;;;;;;11.23;2.90;;;;;;;;;;4432738;32;20177;-77
2021/10/01 10:51:57;;;;;;;10.82;2.55;;;;;;;;;;4423178;32;20189;-78
2021/10/01 10:54:23;;;;;;;10.10;3.42;;;;;;;;;;4403572;32;20529;-78
2021/10/01 10:57:18;;;;;;;;;;;;;;;;;;;;;
2021/10/01 10:59:54;;;;;;;9.02;3.05;;;;;;;;;;4417470;32;20146;-78
2021/10/01 11:02:49;;;;;;;7.00;2.20;;;;;;;;;;4406987;32;20293;-78
2021/10/01 11:05:52;;;;;;;9.85;2.65;;;;;;;;;;4413243;32;20168;-79
2021/10/01 11:08:23;;;;;;;5.10;2.30;;;;;;;;;;4406927;32;20146;-77
2021/10/01 11:10:54;;;;;;;9.02;2.45;;;;;;;;;;4406503;32;20164;-77
2021/10/01 11:13:28;;;;;;;9.00;2.67;;;;;;;;;;4406878;32;20130;-77
2021/10/01 11:16:09;;;;;;;7.87;2.53;;;;;;;;;;4407200;32;20613;-77
2021/10/01 11:18:46;;;;;;;5.18;2.50;;;;;;;;;;4407230;32;20141;-76
2021/10/01 11:21:27;;;;;;;5.30;2.40;;;;;;;;;;4406205;32;20336;-78
2021/10/01 11:23:56;;;;;;;7.00;2.30;;;;;;;;;;4406777;32;20169;-77
2021/10/01 11:26:25;;;;;;;6.65;2.20;;;;;;;;;;4406759;32;20169;-78
2021/10/01 11:28:50;;;;;;;7.70;2.67;;;;;;;;;;4406890;32;20145;-75
2021/10/01 11:31:18;;;;;;;11.48;2.47;;;;;;;;;;4406166;32;20228;-77
2021/10/01 11:33:47;;;;;;;9.90;3.05;;;;;;;;;;4415310;32;20184;-82
2021/10/01 11:36:12;;;;;;;10.35;2.92;;;;;;;;;;4406298;32;20180;-81
2021/10/01 11:38:37;;;;;;;4.72;2.30;;;;;;;;;;4406651;32;20130;-81
2021/10/01 11:41:07;;;;;;;8.43;2.40;;;;;;;;;;4392519;32;20171;-80
2021/10/01 11:44:00;;;;;;;9.50;2.35;;;;;;;;;;4407971;32;20222;-82
2021/10/01 11:46:40;;;;;;;5.93;2.70;;;;;;;;;;4400829;32;20261;-81
2021/10/01 11:49:14;;;;;;;7.50;2.12;;;;;;;;;;4408812;32;20541;-80
2021/10/01 11:51:56;;;;;;;8.13;2.20;;;;;;;;;;4410176;32;20588;-80
2021/10/01 11:54:21;;;;;;;6.87;2.33;;;;;;;;;;4417082;32;20177;-78
2021/10/01 11:57:01;;;;;;;6.15;2.58;;;;;;;;;;4421839;32;20434;-79
2021/10/01 11:59:46;;;;;;;6.55;2.15;;;;;;;;;;4407463;32;20288;-80
2021/10/01 12:02:24;;;;;;;8.20;2.45;;;;;;;;;;4422218;32;20222;-77
2021/10/01 12:04:58;;;;;;;6.82;2.15;;;;;;;;;;4422103;32;20122;-80
2021/10/01 12:07:23;;;;;;;9.52;2.10;;;;;;;;;;4421848;32;20148;-80
2021/10/01 12:10:07;;;;;;;5.72;1.85;;;;;;;;;;4421287;32;20145;-80
2021/10/01 12:12:32;;;;;;;4.72;1.77;;;;;;;;;;4419561;32;20157;-79
2021/10/01 12:15:00;;;;;;;5.07;1.85;;;;;;;;;;4413503;32;20525;-79
2021/10/01 12:17:42;;;;;;;6.55;1.83;;;;;;;;;;4415087;32;20194;-77
2021/10/01 12:20:09;;;;;;;6.82;2.00;;;;;;;;;;4408527;32;20173;-77
2021/10/01 12:22:36;;;;;;;7.22;2.37;;;;;;;;;;4392671;32;20162;-78
2021/10/01 12:25:02;;;;;;;4.87;2.00;;;;;;;;;;4405956;32;20234;-78
2021/10/01 12:27:44;;;;;;;7.32;2.05;;;;;;;;;;4405830;32;20134;-73
2021/10/01 12:30:09;;;;;;;10.27;2.37;;;;;;;;;;4405948;32;20146;-78
2021/10/01 12:32:39;;;;;;;6.35;2.08;;;;;;;;;;4405789;32;20134;-78
2021/10/01 12:35:11;;;;;;;5.75;2.55;;;;;;;;;;4406004;32;20211;-79
2021/10/01 12:37:40;;;;;;;8.43;2.53;;;;;;;;;;4406581;32;20130;-80
2021/10/01 12:40:07;;;;;;;7.25;2.35;;;;;;;;;;4406177;32;20142;-78
2021/10/01 12:42:33;;;;;;;6.00;2.22;;;;;;;;;;4405671;32;20153;-80
2021/10/01 12:45:14;;;;;;;;;;;;;;;;;;;;;
2021/10/01 12:47:41;;;;;;;8.02;2.42;;;;;;;;;;4407968;32;20142;-79
2021/10/01 12:50:16;;;;;;;6.93;2.58;;;;;;;;;;4406689;32;20166;-79
2021/10/01 12:53:01;;;;;;;5.55;2.00;;;;;;;;;;4406500;32;20195;-79
2021/10/01 12:55:36;;;;;;;7.78;1.95;;;;;;;;;;4393981;32;20135;-78
2021/10/01 12:58:02;;;;;;;10.07;2.37;;;;;;;;;;4408668;32;20161;-77
2021/10/01 13:00:31;;;;;;;5.68;1.90;;;;;;;;;;4406397;32;20165;-80
2021/10/01 13:03:11;;;;;;;7.80;2.20;;;;;;;;;;4391748;32;20220;-77
2021/10/01 13:05:38;;;;;;;4.78;1.80;;;;;;;;;;4406463;32;20130;-79
2021/10/01 13:08:03;;;;;;;5.45;2.17;;;;;;;;;;4405833;32;20126;-80
2021/10/01 13:10:31;;;;;;;8.63;2.75;;;;;;;;;;4405397;32;20168;-79
2021/10/01 13:12:56;;;;;;;5.95;2.30;;;;;;;;;;4405088;32;20134;-80
2021/10/01 13:15:22;;;;;;;9.02;2.45;;;;;;;;;;4405640;32;20560;-81
2021/10/01 13:21:16;;;;;;;7.05;3.20;;;;;;;;;;4388847;32;20207;-82
2021/10/01 13:23:48;;;;;;;10.48;3.45;;;;;;;;;;4406311;32;20278;-81
2021/10/01 13:26:15;;;;;;;7.20;3.58;;;;;;;;;;4392821;32;20215;-82
2021/10/01 13:28:41;;;;;;;7.75;3.53;;;;;;;;;;4407823;32;20583;-81
2021/10/01 13:31:09;;;;;;;8.88;3.28;;;;;;;;;;4400157;32;20587;-82
2021/10/01 13:33:35;;;;;;;6.10;2.72;;;;;;;;;;4420642;32;20154;-82
2021/10/01 13:36:00;;;;;;;7.50;2.12;;;;;;;;;;4420613;32;20219;-82
2021/10/01 13:38:26;;;;;;;6.20;2.25;;;;;;;;;;4406303;32;20214;-82
2021/10/01 13:40:51;;;;;;;5.20;2.00;;;;;;;;;;4420525;32;20169;-81
2021/10/01 13:43:17;;;;;;;9.00;2.10;;;;;;;;;;4417828;32;20203;-81
2021/10/01 13:45:44;;;;;;;6.93;2.30;;;;;;;;;;4401826;32;20165;-80
2021/10/01 13:48:09;;;;;;;5.25;2.12;;;;;;;;;;4406091;32;20236;-81
2021/10/01 13:50:34;;;;;;;5.00;1.85;;;;;;;;;;4419710;32;20455;-82
2021/10/01 13:53:00;;;;;;;6.68;2.00;;;;;;;;;;4420716;32;20130;-80
2021/10/01 13:55:25;;;;;;;8.60;2.03;;;;;;;;;;4419667;32;20159;-79
2021/10/01 13:57:58;;;;;;;5.43;2.05;;;;;;;;;;4417628;32;20208;-81
2021/10/01 14:00:31;;;;;;;4.53;1.55;;;;;;;;;;4405468;32;20538;-83
2021/10/01 14:02:57;;;;;;;5.00;1.40;;;;;;;;;;4405088;32;20134;-82
2021/10/01 14:05:22;;;;;;;6.10;1.67;;;;;;;;;;4404798;32;20173;-81
2021/10/01 14:07:47;;;;;;;5.65;1.40;;;;;;;;;;4405183;32;20156;-81
2021/10/01 14:10:25;;;;;;;8.10;1.83;;;;;;;;;;4405539;32;20172;-81
2021/10/01 14:12:51;;;;;;;4.10;1.58;;;;;;;;;;4406112;32;20177;-80
2021/10/01 14:15:17;;;;;;;5.95;1.50;;;;;;;;;;4411451;32;20165;-80
2021/10/01 14:17:42;;;;;;;7.05;1.70;;;;;;;;;;4419962;32;20161;-78
2021/10/01 14:20:09;;;;;;;8.02;2.17;;;;;;;;;;4414204;32;20475;-80
2021/10/01 14:22:34;;;;;;;5.85;1.85;;;;;;;;;;4404951;32;20147;-81
2021/10/01 14:25:01;;;;;;;4.47;1.95;;;;;;;;;;4405710;32;20417;-81
2021/10/01 14:27:27;;;;;;;6.68;1.85;;;;;;;;;;4404500;32;20150;-82
2021/10/01 14:29:56;;;;;;;6.00;1.92;;;;;;;;;;4405345;32;20138;-80
2021/10/01 14:32:41;;;;;;;6.50;2.20;;;;;;;;;;4405944;32;20642;-82
2021/10/01 14:35:07;;;;;;;7.22;2.53;;;;;;;;;;4407143;32;20146;-82
2021/10/01 14:43:22;;;;;;;10.25;3.10;;;;;;;;;;4413087;32;20490;-78
2021/10/01 14:46:03;;;;;;;6.18;2.70;;;;;;;;;;4408926;32;20166;-81
2021/10/01 14:51:52;;;;;;;7.80;3.20;;;;;;;;;;4419574;32;20316;-78
2021/10/01 14:54:44;;;;;;;7.62;3.00;;;;;;;;;;4407404;32;20543;-78
2021/10/01 14:57:25;;;;;;;6.57;2.78;;;;;;;;;;4419999;32;20162;-80
2021/10/01 15:00:00;;;;;;;10.13;3.90;;;;;;;;;;4422892;32;20129;-79
2021/10/01 15:02:45;;;;;;;10.50;3.92;;;;;;;;;;4420187;32;20206;-80
2021/10/01 15:08:12;;;;;;;10.55;3.90;;;;;;;;;;4401579;32;20184;-81
2021/10/01 15:10:37;;;;;;;15.38;3.83;;;;;;;;;;4407895;32;20138;-81
2021/10/01 15:13:02;;;;;;;13.73;5.10;;;;;;;;;;4411738;32;20205;-82
2021/10/01 15:15:28;;;;;;;10.35;4.35;;;;;;;;;;4414316;32;20630;-82
2021/10/01 15:17:53;;;;;;;13.02;4.53;;;;;;;;;;4408041;32;20134;-79
2021/10/01 15:20:47;;;;;;;11.95;4.43;;;;;;;;;;4407012;32;20145;-80
2021/10/01 15:23:15;;;;;;;11.88;5.00;;;;;;;;;;4406539;32;20266;-80
2021/10/01 15:25:53;;;;;;;9.73;4.93;;;;;;;;;;4418994;32;20158;-80
2021/10/01 15:28:19;;;;;;;11.38;5.00;;;;;;;;;;4397791;32;20452;-80
2021/10/01 15:30:52;;;;;;;13.18;6.90;;;;;;;;;;4411039;32;20158;-81
2021/10/01 15:33:20;;;;;;;16.10;6.68;;;;;;;;;;4419669;32;20146;-82
2021/10/01 15:35:45;;;;;;;12.63;6.37;;;;;;;;;;4412994;32;20214;-81
2021/10/01 15:38:21;;;;;;;;;;;;;;;;;;;;;
2021/10/01 15:41:00;;;;;;;16.75;6.03;;;;;;;;;;4427419;32;20149;-83
2021/10/01 15:44:10;;;;;;;15.25;6.43;;;;;;;;;;4402408;32;20612;-81
2021/10/01 15:46:40;;;;;;;8.88;5.37;;;;;;;;;;4404494;32;20170;-82
2021/10/01 15:49:05;;;;;;;14.35;6.93;;;;;;;;;;4412583;32;20586;-80
2021/10/01 15:51:31;;;;;;;17.25;7.20;;;;;;;;;;4419715;32;20157;-82
2021/10/01 15:54:00;;;;;;;12.10;7.62;;;;;;;;;;4413348;32;20134;-83
2021/10/01 15:56:27;;;;;;;11.48;6.68;;;;;;;;;;4411191;32;20127;-81
2021/10/01 15:59:01;;;;;;;15.02;6.78;;;;;;;;;;4410435;32;20256;-80
2021/10/01 16:01:38;;;;;;;9.68;7.32;;;;;;;;;;4420168;32;20149;-81
2021/10/01 16:04:24;;;;;;;17.40;7.82;;;;;;;;;;4422992;32;20137;-79
2021/10/01 16:07:02;;;;;;;12.73;7.18;;;;;;;;;;4423486;32;20573;-80
2021/10/01 16:09:30;;;;;;;13.00;7.30;;;;;;;;;;4425678;32;20495;-80
2021/10/01 16:11:56;;;;;;;15.32;8.07;;;;;;;;;;4418641;32;20203;-83
2021/10/01 16:14:32;;;;;;;13.20;8.02;;;;;;;;;;4405315;32;20251;-80
2021/10/01 16:17:00;;;;;;;15.30;7.57;;;;;;;;;;4416600;32;20190;-80
2021/10/01 16:19:25;;;;;;;13.50;6.37;;;;;;;;;;4406867;32;20264;-80
2021/10/01 16:22:08;;;;;;;12.30;6.60;;;;;;;;;;4406896;32;20499;-80
2021/10/01 16:24:34;;;;;;;13.52;7.12;;;;;;;;;;4421688;32;20137;-78
2021/10/01 16:27:11;;;;;;;11.75;7.05;;;;;;;;;;4421574;32;20562;-80
2021/10/01 16:29:40;;;;;;;15.68;7.18;;;;;;;;;;4407170;32;20203;-79
2021/10/01 16:32:06;;;;;;;16.15;7.50;;;;;;;;;;4406026;32;20555;-80
2021/10/01 16:34:31;;;;;;;14.20;6.47;;;;;;;;;;4405933;32;20254;-81
2021/10/01 16:36:57;;;;;;;11.10;6.78;;;;;;;;;;4406504;32;20611;-80
2021/10/01 16:39:31;;;;;;;11.27;6.50;;;;;;;;;;4406324;32;20184;-80
2021/10/01 16:41:56;;;;;;;12.13;6.78;;;;;;;;;;4392223;32;20157;-80
2021/10/01 16:44:25;;;;;;;15.57;7.07;;;;;;;;;;4405701;32;20215;-79
2021/10/01 16:47:30;;;;;;;12.68;6.07;;;;;;;;;;4392314;32;20511;-79
2021/10/01 16:49:57;;;;;;;15.48;8.07;;;;;;;;;;4406062;32;20232;-81
2021/10/01 16:52:40;;;;;;;15.98;7.80;;;;;;;;;;4391848;32;20208;-80
2021/10/01 16:58:01;;;;;;;16.83;8.68;;;;;;;;;;4392350;32;20154;-80
2021/10/01 17:00:28;;;;;;;15.52;7.85;;;;;;;;;;4397351;32;20161;-79
2021/10/01 17:02:57;;;;;;;16.27;9.55;;;;;;;;;;4416341;32;20226;-80